createdAt,value
2023-01-29T00:02:30.780Z,102909.06
2023-01-29T00:05:10.026Z,102925.13
2023-01-29T00:07:52.275Z,102939.13
2023-01-29T00:10:28.656Z,102930.28
2023-01-29T00:12:59.507Z,102953.31
2023-01-29T00:15:28.799Z,102950.72
2023-01-29T00:17:56.739Z,102947.22
2023-01-29T00:20:25.643Z,102932.53
2023-01-29T00:22:53.981Z,102913.31
2023-01-29T00:25:23.504Z,102890.53
2023-01-29T00:27:51.533Z,102853.44
2023-01-29T00:30:21.028Z,102883.56
2023-01-29T00:32:55.000Z,102883.50
2023-01-29T00:35:23.944Z,102883.47
2023-01-29T00:37:52.101Z,102876.47
2023-01-29T00:40:20.010Z,102871.44
2023-01-29T00:43:05.818Z,102852.19
2023-01-29T00:45:33.961Z,102816.19
2023-01-29T00:48:05.943Z,102821.44
2023-01-29T00:50:33.795Z,102839.78
2023-01-29T00:53:01.704Z,102848.56
2023-01-29T00:55:30.065Z,102843.31
2023-01-29T00:57:58.363Z,102851.28
2023-01-29T01:00:26.553Z,102851.41
2023-01-29T01:03:08.886Z,102831.91
2023-01-29T01:05:39.233Z,102846.09
2023-01-29T01:08:28.753Z,102838.97
2023-01-29T01:11:01.554Z,102865.34
2023-01-29T01:13:29.697Z,102865.34
2023-01-29T01:15:57.562Z,102867.97
2023-01-29T01:18:25.612Z,102868.06
2023-01-29T01:20:58.732Z,102869.06
2023-01-29T01:23:28.046Z,102854.19
2023-01-29T01:25:56.031Z,102849.84
2023-01-29T01:28:24.033Z,102853.44
2023-01-29T01:30:51.970Z,102853.41
2023-01-29T01:33:21.361Z,102840.16
2023-01-29T01:35:49.358Z,102836.56
2023-01-29T01:38:18.700Z,102851.63
2023-01-29T01:40:47.461Z,102844.66
2023-01-29T01:43:15.399Z,102835.75
2023-01-29T01:45:46.607Z,102848.94
2023-01-29T01:48:23.553Z,102834.88
2023-01-29T01:50:54.822Z,102848.97
2023-01-29T01:53:30.911Z,102856.84
2023-01-29T01:56:08.180Z,102858.75
2023-01-29T01:58:38.707Z,102842.19
2023-01-29T02:01:09.427Z,102839.50
2023-01-29T02:04:02.169Z,102848.38
2023-01-29T02:06:48.128Z,102831.69
2023-01-29T02:09:35.473Z,102804.09
2023-01-29T02:12:07.274Z,102848.16
2023-01-29T02:14:39.028Z,102855.16
2023-01-29T02:17:08.030Z,102859.53
2023-01-29T02:19:46.617Z,102861.31
2023-01-29T02:22:30.944Z,102853.19
2023-01-29T02:25:22.202Z,102869.75
2023-01-29T02:28:23.550Z,102900.50
2023-01-29T02:31:00.547Z,102899.69
2023-01-29T02:33:37.874Z,102901.53
2023-01-29T02:36:19.517Z,102898.78
2023-01-29T02:38:56.951Z,102903.16
2023-01-29T02:41:31.287Z,102910.25
2023-01-29T02:44:07.612Z,102914.84
2023-01-29T02:46:42.555Z,102890.41
2023-01-29T02:49:17.098Z,102865.91
2023-01-29T02:51:50.773Z,102858.91
2023-01-29T02:54:25.382Z,102859.78
2023-01-29T02:56:57.500Z,102861.53
2023-01-29T02:59:35.618Z,102871.13
2023-01-29T03:02:09.497Z,102862.28
2023-01-29T03:04:45.742Z,102869.38
2023-01-29T03:07:41.236Z,102835.19
2023-01-29T03:10:17.776Z,102834.38
2023-01-29T03:12:49.254Z,102837.88
2023-01-29T03:15:25.310Z,102848.41
2023-01-29T03:17:57.834Z,102836.00
2023-01-29T03:20:32.573Z,102848.38
2023-01-29T03:23:07.510Z,102843.25
2023-01-29T03:25:54.806Z,102827.50
2023-01-29T03:28:42.641Z,102828.31
2023-01-29T03:31:33.193Z,102830.09
2023-01-29T03:34:08.050Z,102812.63
2023-01-29T03:36:45.224Z,102791.69
2023-01-29T03:39:16.248Z,102783.84
2023-01-29T03:41:50.311Z,102762.06
2023-01-29T03:44:24.957Z,102754.09
2023-01-29T03:47:00.044Z,102743.66
2023-01-29T03:49:40.850Z,102720.81
2023-01-29T03:52:17.284Z,102706.06
2023-01-29T03:55:00.857Z,102679.88
2023-01-29T03:57:36.068Z,102648.47
2023-01-29T04:00:09.571Z,102602.03
2023-01-29T04:02:48.404Z,102566.25
2023-01-29T04:05:21.231Z,102561.00
2023-01-29T04:07:58.207Z,102543.44
2023-01-29T04:10:32.672Z,102533.09
2023-01-29T04:13:05.605Z,102480.69
2023-01-29T04:15:40.193Z,102450.00
2023-01-29T04:18:13.538Z,102443.00
2023-01-29T04:20:41.947Z,102437.84
2023-01-29T04:23:21.914Z,102414.22
2023-01-29T04:26:08.252Z,102383.59
2023-01-29T04:28:50.716Z,102355.69
2023-01-29T04:31:22.868Z,102320.78
2023-01-29T04:34:05.224Z,102263.03
2023-01-29T04:36:39.545Z,102248.19
2023-01-29T04:39:19.152Z,102236.88
2023-01-29T04:41:54.985Z,102215.03
2023-01-29T04:44:30.404Z,102184.38
2023-01-29T04:47:07.219Z,102160.78
2023-01-29T04:49:46.978Z,102150.31
2023-01-29T04:52:23.364Z,102166.88
2023-01-29T04:55:01.474Z,102204.53
2023-01-29T04:57:36.050Z,102164.28
2023-01-29T05:00:12.188Z,102133.75
2023-01-29T05:02:44.730Z,102090.91
2023-01-29T05:05:15.892Z,102052.31
2023-01-29T05:07:46.626Z,102039.34
2023-01-29T05:10:19.061Z,102029.75
2023-01-29T05:12:52.650Z,101951.03
2023-01-29T05:15:24.487Z,101958.03
2023-01-29T05:17:53.770Z,101997.31
2023-01-29T05:20:23.855Z,102081.19
2023-01-29T05:22:52.088Z,102195.63
2023-01-29T05:25:24.178Z,102318.75
2023-01-29T05:28:04.729Z,102419.25
2023-01-29T05:30:34.204Z,102510.06
2023-01-29T05:33:04.641Z,102592.16
2023-01-29T05:35:36.196Z,102690.06
2023-01-29T05:38:04.261Z,102754.59
2023-01-29T05:40:32.955Z,102772.81
2023-01-29T05:43:00.934Z,102823.47
2023-01-29T05:45:28.990Z,102848.97
2023-01-29T05:47:58.408Z,102849.09
2023-01-29T05:50:27.254Z,102829.63
2023-01-29T05:53:08.172Z,102848.25
2023-01-29T05:55:36.297Z,102836.91
2023-01-29T05:58:05.971Z,102817.72
2023-01-29T06:00:35.496Z,102787.72
2023-01-29T06:03:03.872Z,102779.00
2023-01-29T06:05:32.747Z,102758.97
2023-01-29T06:08:04.259Z,102761.81
2023-01-29T06:10:32.289Z,102732.16
2023-01-29T06:13:00.328Z,102677.09
2023-01-29T06:15:28.498Z,102643.09
2023-01-29T06:17:56.696Z,102594.13
2023-01-29T06:20:25.605Z,102546.91
2023-01-29T06:22:55.773Z,102519.00
2023-01-29T06:25:25.100Z,102473.56
2023-01-29T06:27:57.716Z,102426.44
2023-01-29T06:30:28.280Z,102353.78
2023-01-29T06:32:58.832Z,102311.09
2023-01-29T06:35:27.082Z,102262.16
2023-01-29T06:37:55.042Z,102228.13
2023-01-29T06:40:23.043Z,102181.72
2023-01-29T06:42:52.570Z,102185.22
2023-01-29T06:45:20.672Z,102178.22
2023-01-29T06:47:48.666Z,102170.41
2023-01-29T06:50:17.046Z,102103.03
2023-01-29T06:52:45.200Z,102074.25
2023-01-29T06:55:13.217Z,102048.91
2023-01-29T06:57:41.158Z,102020.09
2023-01-29T07:00:15.769Z,101929.19
2023-01-29T07:02:43.810Z,101881.09
2023-01-29T07:05:22.723Z,101845.28
2023-01-29T07:07:50.645Z,101874.09
2023-01-29T07:10:19.247Z,101917.75
2023-01-29T07:12:47.425Z,101966.69
2023-01-29T07:15:23.399Z,101994.63
2023-01-29T07:17:58.784Z,102037.44
2023-01-29T07:20:27.465Z,102092.50
2023-01-29T07:22:55.437Z,102135.31
2023-01-29T07:25:23.565Z,102172.03
2023-01-29T07:27:51.668Z,102197.34
2023-01-29T07:30:23.248Z,102213.06
2023-01-29T07:32:51.281Z,102245.38
2023-01-29T07:35:19.388Z,102238.41
2023-01-29T07:37:50.309Z,102221.75
2023-01-29T07:40:20.943Z,102248.00
2023-01-29T07:42:49.072Z,102260.22
2023-01-29T07:45:17.030Z,102254.75
2023-01-29T07:47:52.898Z,102287.03
2023-01-29T07:50:20.801Z,102341.09
2023-01-29T07:52:48.679Z,102410.00
2023-01-29T07:55:16.840Z,102479.13
2023-01-29T07:57:45.280Z,102530.75
2023-01-29T08:00:14.833Z,102571.00
2023-01-29T08:02:47.365Z,102555.25
2023-01-29T08:05:15.400Z,102551.94
2023-01-29T08:07:57.239Z,102517.00
2023-01-29T08:10:35.834Z,102489.94
2023-01-29T08:13:05.830Z,102439.31
2023-01-29T08:15:36.071Z,102383.38
2023-01-29T08:18:07.485Z,102334.53
2023-01-29T08:20:35.538Z,102290.03
2023-01-29T08:23:06.748Z,102225.47
2023-01-29T08:25:35.749Z,102121.56
2023-01-29T08:28:04.050Z,101984.31
2023-01-29T08:30:34.368Z,101906.56
2023-01-29T08:33:08.261Z,101782.44
2023-01-29T08:35:36.376Z,101688.91
2023-01-29T08:38:06.876Z,101634.72
2023-01-29T08:40:35.796Z,101595.38
2023-01-29T08:43:07.130Z,101551.69
2023-01-29T08:45:38.852Z,101556.03
2023-01-29T08:48:10.322Z,101527.16
2023-01-29T08:50:38.989Z,101477.34
2023-01-29T08:53:08.774Z,101489.63
2023-01-29T08:55:38.270Z,101511.47
2023-01-29T08:58:06.855Z,101546.44
2023-01-29T09:00:35.571Z,101581.38
2023-01-29T09:03:03.848Z,101491.31
2023-01-29T09:05:33.426Z,101428.34
2023-01-29T09:08:01.591Z,101398.63
2023-01-29T09:10:29.919Z,101362.78
2023-01-29T09:12:57.800Z,101345.25
2023-01-29T09:15:26.825Z,101326.84
2023-01-29T09:17:54.747Z,101332.06
2023-01-29T09:20:23.288Z,101311.94
2023-01-29T09:22:53.677Z,101301.34
2023-01-29T09:25:21.753Z,101309.31
2023-01-29T09:27:49.677Z,101325.06
2023-01-29T09:30:19.004Z,101406.44
2023-01-29T09:32:53.481Z,101491.28
2023-01-29T09:35:22.580Z,101553.41
2023-01-29T09:37:52.723Z,101610.22
2023-01-29T09:40:31.868Z,101577.84
2023-01-29T09:43:03.840Z,101569.09
2023-01-29T09:45:32.408Z,101578.72
2023-01-29T09:48:03.399Z,101589.19
2023-01-29T09:50:36.215Z,101513.06
2023-01-29T09:53:13.772Z,101447.44
2023-01-29T09:55:47.163Z,101352.88
2023-01-29T09:58:20.615Z,101288.91
2023-01-29T10:00:55.659Z,101270.56
2023-01-29T10:03:49.162Z,101288.06
2023-01-29T10:06:27.351Z,101306.38
2023-01-29T10:09:23.685Z,101307.91
2023-01-29T10:12:00.284Z,101302.00
2023-01-29T10:14:38.419Z,101326.56
2023-01-29T10:17:21.567Z,101408.84
2023-01-29T10:20:01.023Z,101483.28
2023-01-29T10:22:53.205Z,101492.94
2023-01-29T10:25:24.843Z,101526.13
2023-01-29T10:27:58.234Z,101566.41
2023-01-29T10:30:32.995Z,101569.03
2023-01-29T10:33:04.417Z,101521.81
2023-01-29T10:43:07.338Z,101651.34
2023-01-29T10:49:28.625Z,101988.94
2023-01-29T10:52:25.258Z,102091.31
2023-01-29T10:55:07.693Z,102097.41
2023-01-29T10:57:58.500Z,102121.19
2023-01-29T11:00:31.745Z,102122.91
2023-01-29T11:03:26.322Z,102124.63
2023-01-29T11:06:02.710Z,102177.28
2023-01-29T11:08:35.857Z,102188.63
2023-01-29T11:11:09.168Z,102225.31
2023-01-29T11:13:41.637Z,102317.19
2023-01-29T11:16:11.719Z,102422.09
2023-01-29T11:18:51.972Z,102551.63
2023-01-29T11:21:20.028Z,102622.69
2023-01-29T11:23:49.638Z,102659.28
2023-01-29T11:26:22.371Z,102669.84
2023-01-29T11:28:52.312Z,102596.44
2023-01-29T11:31:24.413Z,102540.50
2023-01-29T11:33:55.392Z,102462.44
2023-01-29T11:36:35.619Z,102425.75
2023-01-29T11:39:18.497Z,102410.75
2023-01-29T11:41:50.274Z,102398.47
2023-01-29T11:44:28.702Z,102412.75
2023-01-29T11:47:00.592Z,102390.72
2023-01-29T11:49:34.851Z,102394.25
2023-01-29T11:52:05.986Z,102376.78
2023-01-29T11:54:39.457Z,102365.31
2023-01-29T11:57:24.571Z,102362.03
2023-01-29T11:59:54.184Z,102356.78
2023-01-29T12:02:30.852Z,102351.53
2023-01-29T12:05:03.024Z,102344.59
2023-01-29T12:07:34.836Z,102343.72
2023-01-29T12:10:03.610Z,102342.97
2023-01-29T12:12:39.256Z,102334.22
2023-01-29T12:15:20.712Z,102335.06
2023-01-29T12:18:13.835Z,102343.03
2023-01-29T12:20:46.101Z,102357.84
2023-01-29T12:23:27.417Z,102377.09
2023-01-29T12:26:03.644Z,102368.22
2023-01-29T12:28:51.793Z,102356.75
2023-01-29T12:31:30.428Z,102349.75
2023-01-29T12:34:06.695Z,102333.03
2023-01-29T12:36:41.431Z,102310.31
2023-01-29T12:39:12.364Z,102297.19
2023-01-29T12:41:46.187Z,102298.13
2023-01-29T12:44:18.176Z,102304.13
2023-01-29T12:46:50.727Z,102292.72
2023-01-29T12:49:26.093Z,102279.59
2023-01-29T12:52:00.803Z,102266.53
2023-01-29T12:54:36.456Z,102267.44
2023-01-29T12:57:09.880Z,102297.03
2023-01-29T12:59:43.804Z,102290.97
2023-01-29T13:02:31.707Z,102279.72
2023-01-29T13:05:08.080Z,102274.41
2023-01-29T13:07:41.113Z,102255.19
2023-01-29T13:10:15.686Z,102236.78
2023-01-29T13:12:52.369Z,102221.78
2023-01-29T13:15:28.477Z,102205.16
2023-01-29T13:18:02.170Z,102171.78
2023-01-29T13:20:35.099Z,102181.53
2023-01-29T13:23:20.068Z,102174.53
2023-01-29T13:25:51.851Z,102162.28
2023-01-29T13:28:22.381Z,102149.03
2023-01-29T13:31:12.543Z,102144.69
2023-01-29T13:33:43.305Z,102102.66
2023-01-29T13:36:18.128Z,102082.50
2023-01-29T13:38:46.148Z,102087.78
2023-01-29T13:41:15.844Z,102084.34
2023-01-29T13:43:50.159Z,102072.09
2023-01-29T13:46:21.524Z,102037.03
2023-01-29T13:48:51.803Z,102028.25
2023-01-29T13:51:24.055Z,102037.91
2023-01-29T13:53:58.211Z,102039.66
2023-01-29T13:56:48.946Z,102018.66
2023-01-29T13:59:24.574Z,102001.13
2023-01-29T14:02:04.981Z,101977.47
2023-01-29T14:04:34.211Z,101988.00
2023-01-29T14:07:23.778Z,101965.25
2023-01-29T14:10:14.983Z,101956.53
2023-01-29T14:12:45.089Z,101923.25
2023-01-29T14:15:30.692Z,101916.25
2023-01-29T14:18:05.929Z,101914.47
2023-01-29T14:20:45.892Z,101888.16
2023-01-29T14:23:25.429Z,101896.16
2023-01-29T14:25:55.044Z,101862.81
2023-01-29T14:28:26.674Z,101871.63
2023-01-29T14:30:55.227Z,101860.25
2023-01-29T14:33:32.857Z,101840.97
2023-01-29T14:36:05.820Z,101851.44
2023-01-29T14:38:35.286Z,101861.13
2023-01-29T14:41:15.918Z,101837.50
2023-01-29T14:43:43.870Z,101839.25
2023-01-29T14:46:43.740Z,101827.88
2023-01-29T14:49:11.938Z,101822.63
2023-01-29T14:51:44.304Z,101813.00
2023-01-29T14:54:26.778Z,101811.25
2023-01-29T14:57:02.188Z,101813.00
2023-01-29T14:59:37.449Z,101788.50
2023-01-29T15:02:17.591Z,101798.13
2023-01-29T15:04:50.007Z,101781.47
2023-01-29T15:07:28.234Z,101800.75
2023-01-29T15:10:21.079Z,101794.66
2023-01-29T15:12:58.167Z,101778.91
2023-01-29T15:15:36.520Z,101758.78
2023-01-29T15:18:09.302Z,101757.91
2023-01-29T15:20:38.946Z,101746.53
2023-01-29T15:23:25.825Z,101758.81
2023-01-29T15:25:59.367Z,101742.19
2023-01-29T15:28:31.572Z,101753.56
2023-01-29T15:31:02.416Z,101755.31
2023-01-29T15:33:43.880Z,101748.34
2023-01-29T15:36:33.384Z,101743.09
2023-01-29T15:39:21.504Z,101736.06
2023-01-29T15:41:53.068Z,101738.69
2023-01-29T15:44:25.082Z,101719.47
2023-01-29T15:46:56.102Z,101723.84
2023-01-29T15:49:30.985Z,101714.22
2023-01-29T15:52:02.736Z,101702.84
2023-01-29T15:54:35.638Z,101718.59
2023-01-29T15:57:10.489Z,101709.88
2023-01-29T15:59:46.049Z,101724.75
2023-01-29T16:03:01.725Z,101709.88
2023-01-29T16:05:47.807Z,101719.47
2023-01-29T16:08:16.905Z,101679.22
2023-01-29T16:11:26.819Z,101718.63
2023-01-29T16:13:57.606Z,101694.16
2023-01-29T16:16:29.274Z,101670.50
2023-01-29T16:19:00.696Z,101686.28
2023-01-29T16:25:04.192Z,101690.66
2023-01-29T16:27:36.452Z,101692.38
2023-01-29T16:30:07.569Z,101666.16
2023-01-29T16:32:53.089Z,101675.78
2023-01-29T16:35:21.161Z,101660.06
2023-01-29T16:38:41.093Z,101671.41
2023-01-29T16:44:04.200Z,101652.19
2023-01-29T16:46:37.051Z,101664.44
2023-01-29T16:49:49.786Z,101636.44
2023-01-29T16:52:24.529Z,101660.91
2023-01-29T16:55:25.942Z,101651.31
2023-01-29T16:57:55.340Z,101644.31
2023-01-29T17:00:32.179Z,101646.94
2023-01-29T17:03:04.544Z,101644.31
2023-01-29T17:05:38.129Z,101644.31
2023-01-29T17:08:06.936Z,101621.59
2023-01-29T17:10:36.808Z,101613.72
2023-01-29T17:13:07.751Z,101609.34
2023-01-29T17:15:44.267Z,101618.13
2023-01-29T17:18:19.490Z,101613.72
2023-01-29T17:20:49.108Z,101603.22
2023-01-29T17:23:19.853Z,101614.59
2023-01-29T17:25:48.623Z,101618.09
2023-01-29T17:28:18.505Z,101627.72
2023-01-29T17:31:00.355Z,101623.34
2023-01-29T17:33:38.260Z,101613.72
2023-01-29T17:36:13.523Z,101615.50
2023-01-29T17:38:48.350Z,101606.75
2023-01-29T17:41:23.364Z,101597.13
2023-01-29T17:43:52.422Z,101592.78
2023-01-29T17:46:20.788Z,101573.53
2023-01-29T17:48:50.300Z,101597.13
2023-01-29T17:51:19.956Z,101579.66
2023-01-29T17:53:47.994Z,101571.78
2023-01-29T17:56:18.442Z,101577.00
2023-01-29T17:58:47.466Z,101563.03
2023-01-29T18:01:17.459Z,101575.25
2023-01-29T18:03:45.726Z,101577.88
2023-01-29T18:06:27.144Z,101573.50
2023-01-29T18:08:56.402Z,101571.75
2023-01-29T18:11:25.148Z,101563.88
2023-01-29T18:13:53.285Z,101560.38
2023-01-29T18:16:22.180Z,101539.44
2023-01-29T18:18:50.501Z,101528.03
2023-01-29T18:21:20.642Z,101521.94
2023-01-29T18:23:48.562Z,101503.56
2023-01-29T18:26:18.175Z,101499.19
2023-01-29T18:28:46.110Z,101494.81
2023-01-29T18:31:14.495Z,101507.94
2023-01-29T18:33:43.856Z,101528.91
2023-01-29T18:36:11.863Z,101513.19
2023-01-29T18:38:41.317Z,101501.81
2023-01-29T18:41:11.331Z,101513.19
2023-01-29T18:43:40.052Z,101511.44
2023-01-29T18:46:08.908Z,101508.78
2023-01-29T18:48:37.872Z,101494.81
2023-01-29T18:51:06.677Z,101508.75
2023-01-29T18:53:34.696Z,101498.31
2023-01-29T18:56:06.121Z,101505.25
2023-01-29T18:58:36.469Z,101511.38
2023-01-29T19:01:09.420Z,101510.53
2023-01-29T19:03:38.225Z,101496.56
2023-01-29T19:06:09.007Z,101508.75
2023-01-29T19:08:37.539Z,101494.75
2023-01-29T19:11:08.988Z,101500.00
2023-01-29T19:13:38.085Z,101496.50
2023-01-29T19:16:09.168Z,101475.50
2023-01-29T19:18:37.649Z,101482.50
2023-01-29T19:21:10.711Z,101491.25
2023-01-29T19:23:38.926Z,101474.63
2023-01-29T19:26:08.834Z,101490.31
2023-01-29T19:28:38.226Z,101505.19
2023-01-29T19:31:06.369Z,101494.75
2023-01-29T19:33:38.999Z,101480.75
2023-01-29T19:36:07.903Z,101487.69
2023-01-29T19:38:38.725Z,101492.06
2023-01-29T19:41:08.268Z,101480.69
2023-01-29T19:43:38.226Z,101503.41
2023-01-29T19:46:07.559Z,101509.56
2023-01-29T19:48:36.759Z,101520.03
2023-01-29T19:51:08.400Z,101515.66
2023-01-29T19:53:37.348Z,101510.44
2023-01-29T19:56:11.747Z,101499.09
2023-01-29T19:58:40.196Z,101522.66
2023-01-29T20:01:13.979Z,101539.28
2023-01-29T20:03:44.559Z,101528.78
2023-01-29T20:06:19.653Z,101500.81
2023-01-29T20:09:03.082Z,101511.31
2023-01-29T20:11:33.544Z,101513.06
2023-01-29T20:14:01.687Z,101526.19
2023-01-29T20:16:29.853Z,101555.91
2023-01-29T20:19:13.987Z,101534.06
2023-01-29T20:21:46.049Z,101549.81
2023-01-29T20:24:14.218Z,101543.69
2023-01-29T20:26:45.097Z,101540.19
2023-01-29T20:29:15.396Z,101548.94
2023-01-29T20:31:43.536Z,101530.56
2023-01-29T20:34:11.516Z,101557.69
2023-01-29T20:36:39.609Z,101548.06
2023-01-29T20:39:07.724Z,101552.44
2023-01-29T20:41:41.535Z,101554.16
2023-01-29T20:44:10.889Z,101558.56
2023-01-29T20:46:40.385Z,101556.81
2023-01-29T20:49:09.048Z,101572.53
2023-01-29T20:51:37.508Z,101579.53
2023-01-29T20:54:05.641Z,101566.38
2023-01-29T20:56:38.169Z,101576.00
2023-01-29T20:59:14.061Z,101579.50
2023-01-29T21:01:43.174Z,101575.13
2023-01-29T21:04:11.077Z,101560.28
2023-01-29T21:06:39.407Z,101547.16
2023-01-29T21:09:07.543Z,101561.13
2023-01-29T21:11:35.512Z,101569.84
2023-01-29T21:14:03.568Z,101547.13
2023-01-29T21:16:33.021Z,101560.22
2023-01-29T21:19:01.266Z,101567.22
2023-01-29T21:21:29.278Z,101540.09
2023-01-29T21:23:58.175Z,101545.28
2023-01-29T21:26:26.177Z,101552.31
2023-01-29T21:28:53.996Z,101526.06
2023-01-29T21:31:21.974Z,101496.31
2023-01-29T21:33:51.503Z,101486.63
2023-01-29T21:36:19.494Z,101480.47
2023-01-29T21:38:47.658Z,101447.22
2023-01-29T21:41:15.865Z,101443.69
2023-01-29T21:43:44.863Z,101449.81
2023-01-29T21:46:12.863Z,101420.09
2023-01-29T21:48:41.383Z,101417.41
2023-01-29T21:51:10.844Z,101411.25
2023-01-29T21:53:38.957Z,101420.88
2023-01-29T21:56:09.928Z,101396.38
2023-01-29T21:58:37.874Z,101404.22
2023-01-29T22:01:35.804Z,101391.03
2023-01-29T22:03:55.279Z,101398.88
2023-01-29T22:06:24.959Z,101387.50
2023-01-29T22:08:52.870Z,101362.13
2023-01-29T22:11:20.927Z,101377.78
2023-01-29T22:13:49.881Z,101378.59
2023-01-29T22:16:17.983Z,101361.91
2023-01-29T22:18:45.993Z,101350.50
2023-01-29T22:21:13.892Z,101342.63
2023-01-29T22:23:43.341Z,101350.44
2023-01-29T22:26:12.254Z,101339.09
2023-01-29T22:28:40.632Z,101354.78
2023-01-29T22:31:09.656Z,101343.31
2023-01-29T22:33:38.396Z,101335.53
2023-01-29T22:36:07.181Z,101314.47
2023-01-29T22:38:36.205Z,101291.75
2023-01-29T22:41:05.914Z,101301.25
2023-01-29T22:43:34.099Z,101283.69
2023-01-29T22:46:03.415Z,101282.03
2023-01-29T22:48:31.514Z,101293.31
2023-01-29T22:51:10.484Z,101326.59
2023-01-29T22:53:39.116Z,101325.69
2023-01-29T22:56:10.456Z,101351.94
2023-01-29T22:58:38.593Z,101340.53
2023-01-29T23:01:06.618Z,101339.66
2023-01-29T23:03:38.076Z,101349.28
2023-01-29T23:06:06.212Z,101328.28
2023-01-29T23:08:34.596Z,101324.78
2023-01-29T23:11:14.533Z,101329.97
2023-01-29T23:13:46.312Z,101320.38
2023-01-29T23:16:15.921Z,101312.38
2023-01-29T23:18:44.417Z,101287.91
2023-01-29T23:21:13.696Z,101309.75
2023-01-29T23:23:45.006Z,101311.50
2023-01-29T23:26:31.449Z,101295.72
2023-01-29T23:29:01.074Z,101309.63
2023-01-29T23:31:32.012Z,101293.03
2023-01-29T23:33:59.932Z,101290.44
2023-01-29T23:36:28.539Z,101258.91
2023-01-29T23:38:56.513Z,101275.44
2023-01-29T23:41:27.665Z,101276.19
2023-01-29T23:44:03.264Z,101259.50
2023-01-29T23:46:31.352Z,101276.13
2023-01-29T23:49:04.697Z,101290.94
2023-01-29T23:51:32.977Z,101276.00
2023-01-29T23:54:02.685Z,101256.00
2023-01-29T23:56:30.621Z,101236.56
2023-01-29T23:58:59.070Z,101233.78
